sensor_id;sensor_type;location;lat;lon;timestamp;P1;durP1;ratioP1;P2;durP2;ratioP2
4375;SDS011;2202;50.866;12.750;2023-07-08T00:02:09;7.53;;;6.33;;
4375;SDS011;2202;50.866;12.750;2023-07-08T00:04:37;7.33;;;5.53;;
4375;SDS011;2202;50.866;12.750;2023-07-08T00:07:04;5.87;;;5.37;;
4375;SDS011;2202;50.866;12.750;2023-07-08T00:09:31;6.73;;;6.13;;
4375;SDS011;2202;50.866;12.750;2023-07-08T00:12:00;7.60;;;6.83;;
4375;SDS011;2202;50.866;12.750;2023-07-08T00:14:26;6.00;;;5.40;;
4375;SDS011;2202;50.866;12.750;2023-07-08T00:16:53;6.60;;;5.90;;
4375;SDS011;2202;50.866;12.750;2023-07-08T00:19:20;6.87;;;5.47;;
4375;SDS011;2202;50.866;12.750;2023-07-08T00:21:49;6.03;;;5.43;;
4375;SDS011;2202;50.866;12.750;2023-07-08T00:24:17;6.40;;;5.20;;
4375;SDS011;2202;50.866;12.750;2023-07-08T00:26:44;6.57;;;5.93;;
4375;SDS011;2202;50.866;12.750;2023-07-08T00:29:12;6.77;;;6.17;;
4375;SDS011;2202;50.866;12.750;2023-07-08T00:31:42;6.60;;;6.00;;
4375;SDS011;2202;50.866;12.750;2023-07-08T00:34:09;10.03;;;6.10;;
4375;SDS011;2202;50.866;12.750;2023-07-08T00:36:36;7.17;;;5.97;;
4375;SDS011;2202;50.866;12.750;2023-07-08T00:39:04;6.10;;;5.50;;
4375;SDS011;2202;50.866;12.750;2023-07-08T00:41:39;5.90;;;5.00;;
4375;SDS011;2202;50.866;12.750;2023-07-08T00:44:08;7.13;;;6.17;;
4375;SDS011;2202;50.866;12.750;2023-07-08T00:46:42;6.87;;;6.17;;
4375;SDS011;2202;50.866;12.750;2023-07-08T00:49:25;6.43;;;5.40;;
4375;SDS011;2202;50.866;12.750;2023-07-08T00:54:50;6.70;;;6.10;;
4375;SDS011;2202;50.866;12.750;2023-07-08T00:57:17;12.60;;;6.10;;
4375;SDS011;2202;50.866;12.750;2023-07-08T00:59:45;6.33;;;5.70;;
4375;SDS011;2202;50.866;12.750;2023-07-08T01:02:18;5.33;;;4.83;;
4375;SDS011;2202;50.866;12.750;2023-07-08T01:04:49;7.33;;;6.63;;
4375;SDS011;2202;50.866;12.750;2023-07-08T01:07:19;7.77;;;5.07;;
4375;SDS011;2202;50.866;12.750;2023-07-08T01:09:48;6.03;;;4.93;;
4375;SDS011;2202;50.866;12.750;2023-07-08T01:12:23;6.20;;;5.60;;
4375;SDS011;2202;50.866;12.750;2023-07-08T01:14:53;6.50;;;5.60;;
4375;SDS011;2202;50.866;12.750;2023-07-08T01:17:23;6.30;;;5.10;;
4375;SDS011;2202;50.866;12.750;2023-07-08T01:19:50;7.27;;;5.47;;
4375;SDS011;2202;50.866;12.750;2023-07-08T01:22:22;5.87;;;5.37;;
4375;SDS011;2202;50.866;12.750;2023-07-08T01:24:48;7.73;;;5.57;;
4375;SDS011;2202;50.866;12.750;2023-07-08T01:27:17;6.33;;;5.43;;
4375;SDS011;2202;50.866;12.750;2023-07-08T01:29:45;5.93;;;5.33;;
4375;SDS011;2202;50.866;12.750;2023-07-08T01:32:13;5.80;;;5.30;;
4375;SDS011;2202;50.866;12.750;2023-07-08T01:34:43;6.40;;;5.60;;
4375;SDS011;2202;50.866;12.750;2023-07-08T01:37:18;5.57;;;5.07;;
4375;SDS011;2202;50.866;12.750;2023-07-08T01:39:46;7.57;;;5.33;;
4375;SDS011;2202;50.866;12.750;2023-07-08T01:42:14;5.73;;;5.13;;
4375;SDS011;2202;50.866;12.750;2023-07-08T01:44:41;9.67;;;5.33;;
4375;SDS011;2202;50.866;12.750;2023-07-08T01:47:08;6.00;;;4.80;;
4375;SDS011;2202;50.866;12.750;2023-07-08T01:49:39;7.90;;;5.37;;
4375;SDS011;2202;50.866;12.750;2023-07-08T01:52:07;6.17;;;5.53;;
4375;SDS011;2202;50.866;12.750;2023-07-08T01:54:36;9.00;;;5.47;;
4375;SDS011;2202;50.866;12.750;2023-07-08T01:57:04;6.07;;;4.57;;
4375;SDS011;2202;50.866;12.750;2023-07-08T01:59:31;5.77;;;5.10;;
4375;SDS011;2202;50.866;12.750;2023-07-08T02:01:58;5.30;;;4.80;;
4375;SDS011;2202;50.866;12.750;2023-07-08T02:04:25;5.57;;;5.07;;
4375;SDS011;2202;50.866;12.750;2023-07-08T02:06:56;5.83;;;4.77;;
4375;SDS011;2202;50.866;12.750;2023-07-08T02:09:24;5.57;;;4.90;;
4375;SDS011;2202;50.866;12.750;2023-07-08T02:11:51;6.90;;;5.37;;
4375;SDS011;2202;50.866;12.750;2023-07-08T02:14:19;6.43;;;5.00;;
4375;SDS011;2202;50.866;12.750;2023-07-08T02:16:47;5.70;;;5.13;;
4375;SDS011;2202;50.866;12.750;2023-07-08T02:19:14;5.70;;;5.10;;
4375;SDS011;2202;50.866;12.750;2023-07-08T02:21:41;5.03;;;4.63;;
4375;SDS011;2202;50.866;12.750;2023-07-08T02:24:08;7.40;;;5.57;;
4375;SDS011;2202;50.866;12.750;2023-07-08T02:26:35;5.67;;;4.80;;
4375;SDS011;2202;50.866;12.750;2023-07-08T02:29:02;6.67;;;4.67;;
4375;SDS011;2202;50.866;12.750;2023-07-08T02:31:30;4.77;;;4.23;;
4375;SDS011;2202;50.866;12.750;2023-07-08T02:33:57;5.43;;;4.83;;
4375;SDS011;2202;50.866;12.750;2023-07-08T02:36:23;7.13;;;5.47;;
4375;SDS011;2202;50.866;12.750;2023-07-08T02:38:51;6.40;;;5.07;;
4375;SDS011;2202;50.866;12.750;2023-07-08T02:41:18;5.40;;;4.43;;
4375;SDS011;2202;50.866;12.750;2023-07-08T02:43:45;4.80;;;4.40;;
4375;SDS011;2202;50.866;12.750;2023-07-08T02:46:11;9.10;;;5.10;;
4375;SDS011;2202;50.866;12.750;2023-07-08T02:48:40;5.93;;;5.27;;
4375;SDS011;2202;50.866;12.750;2023-07-08T02:51:07;8.50;;;5.87;;
4375;SDS011;2202;50.866;12.750;2023-07-08T02:53:34;5.60;;;4.70;;
4375;SDS011;2202;50.866;12.750;2023-07-08T02:56:01;9.67;;;4.83;;
4375;SDS011;2202;50.866;12.750;2023-07-08T02:58:28;4.90;;;4.50;;
4375;SDS011;2202;50.866;12.750;2023-07-08T03:00:56;7.93;;;4.90;;
4375;SDS011;2202;50.866;12.750;2023-07-08T03:03:25;5.73;;;5.17;;
4375;SDS011;2202;50.866;12.750;2023-07-08T03:05:56;5.27;;;4.77;;
4375;SDS011;2202;50.866;12.750;2023-07-08T03:08:23;5.50;;;5.10;;
4375;SDS011;2202;50.866;12.750;2023-07-08T03:10:54;5.97;;;5.00;;
4375;SDS011;2202;50.866;12.750;2023-07-08T03:13:21;5.30;;;4.80;;
4375;SDS011;2202;50.866;12.750;2023-07-08T03:15:49;6.50;;;4.80;;
4375;SDS011;2202;50.866;12.750;2023-07-08T03:18:16;4.93;;;4.53;;
4375;SDS011;2202;50.866;12.750;2023-07-08T03:20:42;4.80;;;4.40;;
4375;SDS011;2202;50.866;12.750;2023-07-08T03:23:12;6.17;;;5.00;;
4375;SDS011;2202;50.866;12.750;2023-07-08T03:25:39;6.17;;;4.93;;
4375;SDS011;2202;50.866;12.750;2023-07-08T03:28:07;5.00;;;4.57;;
4375;SDS011;2202;50.866;12.750;2023-07-08T03:30:40;5.40;;;4.90;;
4375;SDS011;2202;50.866;12.750;2023-07-08T03:33:06;6.30;;;4.70;;
4375;SDS011;2202;50.866;12.750;2023-07-08T03:35:33;5.20;;;4.70;;
4375;SDS011;2202;50.866;12.750;2023-07-08T03:38:00;4.80;;;4.27;;
4375;SDS011;2202;50.866;12.750;2023-07-08T03:40:29;6.00;;;5.10;;
4375;SDS011;2202;50.866;12.750;2023-07-08T03:42:56;6.33;;;5.00;;
4375;SDS011;2202;50.866;12.750;2023-07-08T03:45:22;7.60;;;4.57;;
4375;SDS011;2202;50.866;12.750;2023-07-08T03:47:51;5.30;;;4.40;;
4375;SDS011;2202;50.866;12.750;2023-07-08T03:50:18;6.73;;;5.10;;
4375;SDS011;2202;50.866;12.750;2023-07-08T03:52:47;6.40;;;4.97;;
4375;SDS011;2202;50.866;12.750;2023-07-08T03:55:16;6.03;;;4.87;;
4375;SDS011;2202;50.866;12.750;2023-07-08T03:57:44;6.23;;;4.90;;
4375;SDS011;2202;50.866;12.750;2023-07-08T04:00:11;4.80;;;4.37;;
4375;SDS011;2202;50.866;12.750;2023-07-08T04:02:39;6.60;;;4.67;;
4375;SDS011;2202;50.866;12.750;2023-07-08T04:05:07;6.67;;;4.90;;
4375;SDS011;2202;50.866;12.750;2023-07-08T04:07:40;5.23;;;4.73;;
4375;SDS011;2202;50.866;12.750;2023-07-08T04:10:07;5.47;;;4.97;;
4375;SDS011;2202;50.866;12.750;2023-07-08T04:12:34;5.33;;;4.83;;
4375;SDS011;2202;50.866;12.750;2023-07-08T04:15:03;5.90;;;4.10;;
4375;SDS011;2202;50.866;12.750;2023-07-08T04:17:31;9.07;;;5.10;;
4375;SDS011;2202;50.866;12.750;2023-07-08T04:19:58;6.40;;;4.97;;
4375;SDS011;2202;50.866;12.750;2023-07-08T04:22:29;4.80;;;4.40;;
4375;SDS011;2202;50.866;12.750;2023-07-08T04:24:55;5.27;;;4.77;;
4375;SDS011;2202;50.866;12.750;2023-07-08T04:27:22;5.23;;;4.70;;
4375;SDS011;2202;50.866;12.750;2023-07-08T04:29:49;6.07;;;5.50;;
4375;SDS011;2202;50.866;12.750;2023-07-08T04:32:17;5.40;;;4.30;;
4375;SDS011;2202;50.866;12.750;2023-07-08T04:34:44;5.67;;;4.70;;
4375;SDS011;2202;50.866;12.750;2023-07-08T04:37:11;5.40;;;4.90;;
4375;SDS011;2202;50.866;12.750;2023-07-08T04:39:38;4.97;;;4.47;;
4375;SDS011;2202;50.866;12.750;2023-07-08T04:42:05;5.00;;;4.50;;
4375;SDS011;2202;50.866;12.750;2023-07-08T04:44:32;6.50;;;4.80;;
4375;SDS011;2202;50.866;12.750;2023-07-08T04:46:58;6.80;;;5.53;;
4375;SDS011;2202;50.866;12.750;2023-07-08T04:49:27;4.90;;;4.47;;
4375;SDS011;2202;50.866;12.750;2023-07-08T04:51:56;6.07;;;4.80;;
4375;SDS011;2202;50.866;12.750;2023-07-08T04:54:24;5.30;;;4.80;;
4375;SDS011;2202;50.866;12.750;2023-07-08T04:56:51;4.97;;;4.57;;
4375;SDS011;2202;50.866;12.750;2023-07-08T04:59:20;5.03;;;4.57;;
4375;SDS011;2202;50.866;12.750;2023-07-08T05:01:49;6.70;;;5.27;;
4375;SDS011;2202;50.866;12.750;2023-07-08T05:04:18;6.93;;;4.87;;
4375;SDS011;2202;50.866;12.750;2023-07-08T05:06:48;7.27;;;5.07;;
4375;SDS011;2202;50.866;12.750;2023-07-08T05:09:15;11.13;;;5.77;;
4375;SDS011;2202;50.866;12.750;2023-07-08T05:11:42;5.47;;;4.97;;
4375;SDS011;2202;50.866;12.750;2023-07-08T05:14:10;5.20;;;4.63;;
4375;SDS011;2202;50.866;12.750;2023-07-08T05:16:37;9.90;;;5.40;;
4375;SDS011;2202;50.866;12.750;2023-07-08T05:19:05;5.23;;;4.27;;
4375;SDS011;2202;50.866;12.750;2023-07-08T05:21:32;9.37;;;5.20;;
4375;SDS011;2202;50.866;12.750;2023-07-08T05:24:01;5.80;;;5.30;;
4375;SDS011;2202;50.866;12.750;2023-07-08T05:26:28;5.20;;;4.73;;
4375;SDS011;2202;50.866;12.750;2023-07-08T05:28:55;6.40;;;5.57;;
4375;SDS011;2202;50.866;12.750;2023-07-08T05:31:21;6.10;;;5.50;;
4375;SDS011;2202;50.866;12.750;2023-07-08T05:33:48;6.47;;;5.53;;
4375;SDS011;2202;50.866;12.750;2023-07-08T05:36:15;7.60;;;5.90;;
4375;SDS011;2202;50.866;12.750;2023-07-08T05:38:42;7.90;;;6.27;;
4375;SDS011;2202;50.866;12.750;2023-07-08T05:41:10;7.17;;;6.43;;
4375;SDS011;2202;50.866;12.750;2023-07-08T05:43:38;8.50;;;6.00;;
4375;SDS011;2202;50.866;12.750;2023-07-08T05:46:05;9.03;;;6.73;;
4375;SDS011;2202;50.866;12.750;2023-07-08T05:48:31;6.60;;;6.00;;
4375;SDS011;2202;50.866;12.750;2023-07-08T05:50:58;9.33;;;7.17;;
4375;SDS011;2202;50.866;12.750;2023-07-08T05:53:25;9.23;;;6.33;;
4375;SDS011;2202;50.866;12.750;2023-07-08T05:55:52;8.33;;;6.40;;
4375;SDS011;2202;50.866;12.750;2023-07-08T05:58:20;7.73;;;6.93;;
4375;SDS011;2202;50.866;12.750;2023-07-08T06:00:47;6.80;;;5.80;;
4375;SDS011;2202;50.866;12.750;2023-07-08T06:03:20;7.50;;;6.80;;
4375;SDS011;2202;50.866;12.750;2023-07-08T06:05:47;7.63;;;6.70;;
4375;SDS011;2202;50.866;12.750;2023-07-08T06:08:14;12.67;;;7.33;;
4375;SDS011;2202;50.866;12.750;2023-07-08T06:10:41;7.93;;;7.20;;
4375;SDS011;2202;50.866;12.750;2023-07-08T06:13:09;8.40;;;7.00;;
4375;SDS011;2202;50.866;12.750;2023-07-08T06:15:37;9.10;;;8.20;;
4375;SDS011;2202;50.866;12.750;2023-07-08T06:18:04;8.10;;;7.30;;
4375;SDS011;2202;50.866;12.750;2023-07-08T06:20:31;9.43;;;7.10;;
4375;SDS011;2202;50.866;12.750;2023-07-08T06:22:58;7.33;;;6.30;;
4375;SDS011;2202;50.866;12.750;2023-07-08T06:25:25;7.03;;;5.50;;
4375;SDS011;2202;50.866;12.750;2023-07-08T06:27:52;13.13;;;6.60;;
4375;SDS011;2202;50.866;12.750;2023-07-08T06:30:19;7.93;;;7.20;;
4375;SDS011;2202;50.866;12.750;2023-07-08T06:32:48;7.20;;;6.50;;
4375;SDS011;2202;50.866;12.750;2023-07-08T06:35:14;9.13;;;7.50;;
4375;SDS011;2202;50.866;12.750;2023-07-08T06:37:41;7.10;;;6.40;;
4375;SDS011;2202;50.866;12.750;2023-07-08T06:40:08;7.03;;;6.43;;
4375;SDS011;2202;50.866;12.750;2023-07-08T06:42:36;7.43;;;5.70;;
4375;SDS011;2202;50.866;12.750;2023-07-08T06:45:03;8.50;;;7.70;;
4375;SDS011;2202;50.866;12.750;2023-07-08T06:47:30;7.53;;;5.80;;
4375;SDS011;2202;50.866;12.750;2023-07-08T06:49:59;6.77;;;6.17;;
4375;SDS011;2202;50.866;12.750;2023-07-08T06:52:25;6.67;;;5.63;;
4375;SDS011;2202;50.866;12.750;2023-07-08T06:54:52;7.27;;;6.57;;
4375;SDS011;2202;50.866;12.750;2023-07-08T06:57:19;6.93;;;6.33;;
4375;SDS011;2202;50.866;12.750;2023-07-08T06:59:46;7.40;;;5.80;;
4375;SDS011;2202;50.866;12.750;2023-07-08T07:02:13;6.70;;;5.40;;
4375;SDS011;2202;50.866;12.750;2023-07-08T07:04:39;8.30;;;6.13;;
4375;SDS011;2202;50.866;12.750;2023-07-08T07:07:08;6.07;;;5.50;;
4375;SDS011;2202;50.866;12.750;2023-07-08T07:09:34;10.50;;;6.10;;
4375;SDS011;2202;50.866;12.750;2023-07-08T07:12:01;6.87;;;6.17;;
4375;SDS011;2202;50.866;12.750;2023-07-08T07:14:28;7.10;;;5.67;;
4375;SDS011;2202;50.866;12.750;2023-07-08T07:16:55;5.83;;;4.70;;
4375;SDS011;2202;50.866;12.750;2023-07-08T07:19:22;7.53;;;5.10;;
4375;SDS011;2202;50.866;12.750;2023-07-08T07:21:49;6.60;;;6.00;;
4375;SDS011;2202;50.866;12.750;2023-07-08T07:24:17;6.03;;;5.43;;
4375;SDS011;2202;50.866;12.750;2023-07-08T07:26:44;6.40;;;5.70;;
4375;SDS011;2202;50.866;12.750;2023-07-08T07:29:13;5.83;;;5.20;;
4375;SDS011;2202;50.866;12.750;2023-07-08T07:31:42;5.47;;;4.97;;
4375;SDS011;2202;50.866;12.750;2023-07-08T07:34:09;6.67;;;5.60;;
4375;SDS011;2202;50.866;12.750;2023-07-08T07:36:36;6.90;;;5.60;;
4375;SDS011;2202;50.866;12.750;2023-07-08T07:39:03;6.77;;;5.40;;
4375;SDS011;2202;50.866;12.750;2023-07-08T07:41:31;6.20;;;5.60;;
4375;SDS011;2202;50.866;12.750;2023-07-08T07:43:58;8.23;;;6.80;;
4375;SDS011;2202;50.866;12.750;2023-07-08T07:46:25;6.80;;;6.10;;
4375;SDS011;2202;50.866;12.750;2023-07-08T07:48:52;6.70;;;5.57;;
4375;SDS011;2202;50.866;12.750;2023-07-08T07:51:19;6.70;;;5.53;;
4375;SDS011;2202;50.866;12.750;2023-07-08T07:53:46;7.97;;;5.40;;
4375;SDS011;2202;50.866;12.750;2023-07-08T07:56:13;6.10;;;5.60;;
4375;SDS011;2202;50.866;12.750;2023-07-08T07:58:41;6.53;;;5.57;;
4375;SDS011;2202;50.866;12.750;2023-07-08T08:01:08;5.60;;;5.10;;
4375;SDS011;2202;50.866;12.750;2023-07-08T08:03:35;6.07;;;5.47;;
4375;SDS011;2202;50.866;12.750;2023-07-08T08:06:01;6.70;;;6.10;;
4375;SDS011;2202;50.866;12.750;2023-07-08T08:08:28;6.23;;;5.50;;
4375;SDS011;2202;50.866;12.750;2023-07-08T08:10:55;7.97;;;6.10;;
4375;SDS011;2202;50.866;12.750;2023-07-08T08:13:22;6.23;;;5.63;;
4375;SDS011;2202;50.866;12.750;2023-07-08T08:15:54;7.93;;;6.03;;
4375;SDS011;2202;50.866;12.750;2023-07-08T08:18:22;6.33;;;5.73;;
4375;SDS011;2202;50.866;12.750;2023-07-08T08:20:49;7.00;;;6.30;;
4375;SDS011;2202;50.866;12.750;2023-07-08T08:23:16;6.87;;;6.00;;
4375;SDS011;2202;50.866;12.750;2023-07-08T08:25:43;6.63;;;6.00;;
4375;SDS011;2202;50.866;12.750;2023-07-08T08:28:10;5.97;;;5.47;;
4375;SDS011;2202;50.866;12.750;2023-07-08T08:30:37;6.30;;;5.70;;
4375;SDS011;2202;50.866;12.750;2023-07-08T08:33:05;8.47;;;6.27;;
4375;SDS011;2202;50.866;12.750;2023-07-08T08:35:32;6.97;;;6.27;;
4375;SDS011;2202;50.866;12.750;2023-07-08T08:37:59;6.20;;;5.70;;
4375;SDS011;2202;50.866;12.750;2023-07-08T08:40:28;9.07;;;6.57;;
4375;SDS011;2202;50.866;12.750;2023-07-08T08:42:57;6.43;;;5.83;;
4375;SDS011;2202;50.866;12.750;2023-07-08T08:45:27;7.93;;;6.23;;
4375;SDS011;2202;50.866;12.750;2023-07-08T08:47:56;7.27;;;6.57;;
4375;SDS011;2202;50.866;12.750;2023-07-08T08:50:30;6.53;;;5.93;;
4375;SDS011;2202;50.866;12.750;2023-07-08T08:53:01;8.40;;;6.47;;
4375;SDS011;2202;50.866;12.750;2023-07-08T08:55:30;6.20;;;5.70;;
4375;SDS011;2202;50.866;12.750;2023-07-08T08:57:59;7.87;;;6.70;;
4375;SDS011;2202;50.866;12.750;2023-07-08T09:00:40;10.03;;;8.17;;
4375;SDS011;2202;50.866;12.750;2023-07-08T09:03:12;6.67;;;5.87;;
4375;SDS011;2202;50.866;12.750;2023-07-08T09:05:44;6.87;;;6.07;;
4375;SDS011;2202;50.866;12.750;2023-07-08T09:08:13;17.40;;;5.60;;
4375;SDS011;2202;50.866;12.750;2023-07-08T09:10:45;5.70;;;5.23;;
4375;SDS011;2202;50.866;12.750;2023-07-08T09:13:16;9.10;;;6.03;;
4375;SDS011;2202;50.866;12.750;2023-07-08T09:15:48;6.23;;;5.63;;
4375;SDS011;2202;50.866;12.750;2023-07-08T09:18:25;5.70;;;5.10;;
4375;SDS011;2202;50.866;12.750;2023-07-08T09:21:00;6.03;;;5.53;;
4375;SDS011;2202;50.866;12.750;2023-07-08T09:23:32;8.40;;;6.10;;
4375;SDS011;2202;50.866;12.750;2023-07-08T09:26:04;6.33;;;5.77;;
4375;SDS011;2202;50.866;12.750;2023-07-08T09:28:36;6.53;;;5.87;;
4375;SDS011;2202;50.866;12.750;2023-07-08T09:31:05;8.30;;;6.13;;
4375;SDS011;2202;50.866;12.750;2023-07-08T09:33:33;7.50;;;6.47;;
4375;SDS011;2202;50.866;12.750;2023-07-08T09:36:05;9.47;;;6.00;;
4375;SDS011;2202;50.866;12.750;2023-07-08T09:38:43;7.80;;;5.87;;
4375;SDS011;2202;50.866;12.750;2023-07-08T09:41:13;6.00;;;5.40;;
4375;SDS011;2202;50.866;12.750;2023-07-08T09:43:39;6.40;;;5.80;;
4375;SDS011;2202;50.866;12.750;2023-07-08T09:46:10;5.97;;;5.47;;
4375;SDS011;2202;50.866;12.750;2023-07-08T09:48:38;5.97;;;5.40;;
4375;SDS011;2202;50.866;12.750;2023-07-08T09:51:07;6.60;;;6.00;;
4375;SDS011;2202;50.866;12.750;2023-07-08T09:53:35;6.17;;;5.60;;
4375;SDS011;2202;50.866;12.750;2023-07-08T09:56:03;7.83;;;6.00;;
4375;SDS011;2202;50.866;12.750;2023-07-08T09:58:31;6.90;;;6.20;;
4375;SDS011;2202;50.866;12.750;2023-07-08T10:01:02;5.63;;;5.13;;
4375;SDS011;2202;50.866;12.750;2023-07-08T10:03:36;7.00;;;6.30;;
4375;SDS011;2202;50.866;12.750;2023-07-08T10:06:05;7.33;;;6.03;;
4375;SDS011;2202;50.866;12.750;2023-07-08T10:08:42;6.17;;;5.30;;
4375;SDS011;2202;50.866;12.750;2023-07-08T10:11:12;6.33;;;5.70;;
4375;SDS011;2202;50.866;12.750;2023-07-08T10:13:48;5.17;;;4.77;;
4375;SDS011;2202;50.866;12.750;2023-07-08T10:16:20;5.50;;;5.00;;
4375;SDS011;2202;50.866;12.750;2023-07-08T10:18:49;5.93;;;5.33;;
4375;SDS011;2202;50.866;12.750;2023-07-08T10:21:22;7.33;;;5.40;;
4375;SDS011;2202;50.866;12.750;2023-07-08T10:23:58;5.80;;;5.23;;
4375;SDS011;2202;50.866;12.750;2023-07-08T10:26:31;7.73;;;5.40;;
4375;SDS011;2202;50.866;12.750;2023-07-08T10:29:03;6.47;;;5.87;;
4375;SDS011;2202;50.866;12.750;2023-07-08T10:31:41;5.77;;;5.20;;
4375;SDS011;2202;50.866;12.750;2023-07-08T10:34:19;6.40;;;5.80;;
4375;SDS011;2202;50.866;12.750;2023-07-08T10:37:01;6.40;;;5.50;;
4375;SDS011;2202;50.866;12.750;2023-07-08T10:39:39;6.17;;;5.60;;
4375;SDS011;2202;50.866;12.750;2023-07-08T10:42:23;7.23;;;6.53;;
4375;SDS011;2202;50.866;12.750;2023-07-08T10:45:01;10.43;;;5.20;;
4375;SDS011;2202;50.866;12.750;2023-07-08T10:47:38;5.80;;;5.27;;
4375;SDS011;2202;50.866;12.750;2023-07-08T10:50:16;5.93;;;5.43;;
4375;SDS011;2202;50.866;12.750;2023-07-08T10:52:57;5.83;;;5.33;;
4375;SDS011;2202;50.866;12.750;2023-07-08T10:55:32;5.27;;;4.70;;
4375;SDS011;2202;50.866;12.750;2023-07-08T10:58:30;6.43;;;5.40;;
4375;SDS011;2202;50.866;12.750;2023-07-08T11:01:10;7.20;;;5.07;;
4375;SDS011;2202;50.866;12.750;2023-07-08T11:03:52;5.87;;;5.23;;
4375;SDS011;2202;50.866;12.750;2023-07-08T11:06:40;6.60;;;6.00;;
4375;SDS011;2202;50.866;12.750;2023-07-08T11:09:15;10.10;;;6.67;;
4375;SDS011;2202;50.866;12.750;2023-07-08T11:11:49;6.07;;;5.57;;
4375;SDS011;2202;50.866;12.750;2023-07-08T11:14:21;6.70;;;6.07;;
4375;SDS011;2202;50.866;12.750;2023-07-08T11:16:52;7.20;;;6.07;;
4375;SDS011;2202;50.866;12.750;2023-07-08T11:19:25;11.23;;;7.03;;
4375;SDS011;2202;50.866;12.750;2023-07-08T11:21:56;7.00;;;6.40;;
4375;SDS011;2202;50.866;12.750;2023-07-08T11:24:28;7.00;;;6.40;;
4375;SDS011;2202;50.866;12.750;2023-07-08T11:27:00;13.67;;;7.27;;
4375;SDS011;2202;50.866;12.750;2023-07-08T11:29:33;6.70;;;5.70;;
4375;SDS011;2202;50.866;12.750;2023-07-08T11:32:03;6.33;;;5.70;;
4375;SDS011;2202;50.866;12.750;2023-07-08T11:34:31;6.60;;;6.07;;
4375;SDS011;2202;50.866;12.750;2023-07-08T11:37:00;6.90;;;6.00;;
4375;SDS011;2202;50.866;12.750;2023-07-08T11:39:33;6.10;;;5.50;;
4375;SDS011;2202;50.866;12.750;2023-07-08T11:42:11;6.40;;;5.90;;
4375;SDS011;2202;50.866;12.750;2023-07-08T11:44:44;7.00;;;5.47;;
4375;SDS011;2202;50.866;12.750;2023-07-08T11:47:18;5.67;;;5.00;;
4375;SDS011;2202;50.866;12.750;2023-07-08T11:49:47;6.97;;;6.27;;
4375;SDS011;2202;50.866;12.750;2023-07-08T11:52:18;6.73;;;5.13;;
4375;SDS011;2202;50.866;12.750;2023-07-08T11:54:48;5.67;;;5.17;;
4375;SDS011;2202;50.866;12.750;2023-07-08T11:57:23;5.67;;;5.07;;
4375;SDS011;2202;50.866;12.750;2023-07-08T12:00:10;6.57;;;5.97;;
4375;SDS011;2202;50.866;12.750;2023-07-08T12:02:50;6.23;;;5.63;;
4375;SDS011;2202;50.866;12.750;2023-07-08T12:05:28;6.33;;;5.73;;
4375;SDS011;2202;50.866;12.750;2023-07-08T12:07:57;7.30;;;5.33;;
4375;SDS011;2202;50.866;12.750;2023-07-08T12:10:28;5.43;;;4.93;;
4375;SDS011;2202;50.866;12.750;2023-07-08T12:12:59;5.60;;;5.13;;
4375;SDS011;2202;50.866;12.750;2023-07-08T12:15:26;6.27;;;5.67;;
4375;SDS011;2202;50.866;12.750;2023-07-08T12:17:55;6.73;;;4.90;;
4375;SDS011;2202;50.866;12.750;2023-07-08T12:20:26;6.10;;;5.20;;
4375;SDS011;2202;50.866;12.750;2023-07-08T12:22:56;6.57;;;5.00;;
4375;SDS011;2202;50.866;12.750;2023-07-08T12:25:26;6.20;;;5.60;;
4375;SDS011;2202;50.866;12.750;2023-07-08T12:27:56;7.43;;;5.13;;
4375;SDS011;2202;50.866;12.750;2023-07-08T12:30:24;8.07;;;6.27;;
4375;SDS011;2202;50.866;12.750;2023-07-08T12:32:53;6.37;;;5.20;;
4375;SDS011;2202;50.866;12.750;2023-07-08T12:35:24;6.43;;;5.23;;
4375;SDS011;2202;50.866;12.750;2023-07-08T12:37:54;6.07;;;5.57;;
4375;SDS011;2202;50.866;12.750;2023-07-08T12:40:24;5.80;;;5.30;;
4375;SDS011;2202;50.866;12.750;2023-07-08T12:42:54;5.93;;;5.40;;
4375;SDS011;2202;50.866;12.750;2023-07-08T12:45:21;5.97;;;5.37;;
4375;SDS011;2202;50.866;12.750;2023-07-08T12:47:50;5.10;;;4.70;;
4375;SDS011;2202;50.866;12.750;2023-07-08T12:50:17;5.80;;;5.30;;
4375;SDS011;2202;50.866;12.750;2023-07-08T12:52:45;5.73;;;5.23;;
4375;SDS011;2202;50.866;12.750;2023-07-08T12:55:13;6.30;;;5.07;;
4375;SDS011;2202;50.866;12.750;2023-07-08T12:57:42;5.87;;;5.37;;
4375;SDS011;2202;50.866;12.750;2023-07-08T13:00:14;6.27;;;5.47;;
4375;SDS011;2202;50.866;12.750;2023-07-08T13:02:44;6.20;;;5.60;;
4375;SDS011;2202;50.866;12.750;2023-07-08T13:05:13;5.37;;;4.87;;
4375;SDS011;2202;50.866;12.750;2023-07-08T13:07:41;6.70;;;5.97;;
4375;SDS011;2202;50.866;12.750;2023-07-08T13:10:15;5.53;;;5.03;;
4375;SDS011;2202;50.866;12.750;2023-07-08T13:12:44;7.93;;;5.30;;
4375;SDS011;2202;50.866;12.750;2023-07-08T13:15:19;9.30;;;5.27;;
4375;SDS011;2202;50.866;12.750;2023-07-08T13:17:48;8.10;;;5.43;;
4375;SDS011;2202;50.866;12.750;2023-07-08T13:20:16;5.47;;;4.93;;
4375;SDS011;2202;50.866;12.750;2023-07-08T13:22:46;6.40;;;5.80;;
4375;SDS011;2202;50.866;12.750;2023-07-08T13:25:18;5.60;;;5.10;;
4375;SDS011;2202;50.866;12.750;2023-07-08T13:27:55;6.10;;;5.30;;
4375;SDS011;2202;50.866;12.750;2023-07-08T13:30:25;4.87;;;4.33;;
4375;SDS011;2202;50.866;12.750;2023-07-08T13:32:53;6.10;;;5.60;;
4375;SDS011;2202;50.866;12.750;2023-07-08T13:35:22;5.27;;;4.77;;
4375;SDS011;2202;50.866;12.750;2023-07-08T13:37:50;7.40;;;4.30;;
4375;SDS011;2202;50.866;12.750;2023-07-08T13:40:17;5.70;;;4.77;;
4375;SDS011;2202;50.866;12.750;2023-07-08T13:42:48;6.63;;;5.47;;
4375;SDS011;2202;50.866;12.750;2023-07-08T13:45:17;5.63;;;5.23;;
4375;SDS011;2202;50.866;12.750;2023-07-08T13:47:58;5.90;;;5.40;;
4375;SDS011;2202;50.866;12.750;2023-07-08T13:50:28;11.30;;;5.63;;
4375;SDS011;2202;50.866;12.750;2023-07-08T13:53:16;6.13;;;5.63;;
4375;SDS011;2202;50.866;12.750;2023-07-08T13:55:45;5.17;;;4.77;;
4375;SDS011;2202;50.866;12.750;2023-07-08T13:58:14;5.90;;;5.30;;
4375;SDS011;2202;50.866;12.750;2023-07-08T14:00:42;5.43;;;4.93;;
4375;SDS011;2202;50.866;12.750;2023-07-08T14:03:11;6.07;;;5.57;;
4375;SDS011;2202;50.866;12.750;2023-07-08T14:05:43;6.20;;;5.70;;
4375;SDS011;2202;50.866;12.750;2023-07-08T14:08:11;5.90;;;5.40;;
4375;SDS011;2202;50.866;12.750;2023-07-08T14:13:07;5.40;;;4.90;;
4375;SDS011;2202;50.866;12.750;2023-07-08T14:15:35;4.57;;;4.27;;
4375;SDS011;2202;50.866;12.750;2023-07-08T14:18:03;5.87;;;5.37;;
4375;SDS011;2202;50.866;12.750;2023-07-08T14:20:32;5.30;;;4.90;;
4375;SDS011;2202;50.866;12.750;2023-07-08T14:22:59;6.03;;;5.20;;
4375;SDS011;2202;50.866;12.750;2023-07-08T14:25:25;4.97;;;4.57;;
4375;SDS011;2202;50.866;12.750;2023-07-08T14:30:28;5.97;;;5.20;;
4375;SDS011;2202;50.866;12.750;2023-07-08T14:32:54;5.60;;;5.10;;
4375;SDS011;2202;50.866;12.750;2023-07-08T14:35:23;7.23;;;5.80;;
4375;SDS011;2202;50.866;12.750;2023-07-08T14:37:53;5.97;;;5.10;;
4375;SDS011;2202;50.866;12.750;2023-07-08T14:40:23;5.13;;;4.63;;
4375;SDS011;2202;50.866;12.750;2023-07-08T14:42:55;5.10;;;4.70;;
4375;SDS011;2202;50.866;12.750;2023-07-08T14:45:25;6.80;;;5.10;;
4375;SDS011;2202;50.866;12.750;2023-07-08T14:47:54;5.80;;;5.30;;
4375;SDS011;2202;50.866;12.750;2023-07-08T14:50:21;5.63;;;5.03;;
4375;SDS011;2202;50.866;12.750;2023-07-08T14:52:50;5.93;;;5.37;;
4375;SDS011;2202;50.866;12.750;2023-07-08T14:55:18;6.17;;;4.43;;
4375;SDS011;2202;50.866;12.750;2023-07-08T14:57:46;5.37;;;4.87;;
4375;SDS011;2202;50.866;12.750;2023-07-08T15:00:15;4.90;;;4.50;;
4375;SDS011;2202;50.866;12.750;2023-07-08T15:02:43;6.47;;;5.23;;
4375;SDS011;2202;50.866;12.750;2023-07-08T15:05:15;5.60;;;5.10;;
4375;SDS011;2202;50.866;12.750;2023-07-08T15:07:44;5.57;;;5.07;;
4375;SDS011;2202;50.866;12.750;2023-07-08T15:10:15;7.57;;;6.13;;
4375;SDS011;2202;50.866;12.750;2023-07-08T15:12:43;5.73;;;5.23;;
4375;SDS011;2202;50.866;12.750;2023-07-08T15:15:13;5.90;;;5.30;;
4375;SDS011;2202;50.866;12.750;2023-07-08T15:17:42;5.63;;;5.10;;
4375;SDS011;2202;50.866;12.750;2023-07-08T15:20:11;5.93;;;5.40;;
4375;SDS011;2202;50.866;12.750;2023-07-08T15:22:40;5.93;;;5.30;;